createdAt,value
2018-11-21T00:02:15.827Z,32.17
2018-11-21T00:04:45.211Z,29.63
2018-11-21T00:07:14.654Z,31.37
2018-11-21T00:09:44.442Z,31.40
2018-11-21T00:12:14.505Z,32.27
2018-11-21T00:14:44.819Z,30.10
2018-11-21T00:17:13.399Z,31.90
2018-11-21T00:19:43.179Z,30.07
2018-11-21T00:22:12.452Z,31.50
2018-11-21T00:24:41.918Z,30.63
2018-11-21T00:27:11.947Z,29.00
2018-11-21T00:29:42.093Z,29.27
2018-11-21T00:32:21.963Z,29.27
2018-11-21T00:34:52.217Z,30.33
2018-11-21T00:37:22.612Z,28.83
2018-11-21T00:39:53.273Z,28.77
2018-11-21T00:42:22.678Z,29.77
2018-11-21T00:44:53.196Z,28.67
2018-11-21T00:47:23.043Z,29.77
2018-11-21T00:49:51.971Z,28.50
2018-11-21T00:52:21.936Z,28.03
2018-11-21T00:54:51.570Z,28.73
2018-11-21T00:57:23.479Z,29.53
2018-11-21T00:59:51.119Z,26.53
2018-11-21T01:02:21.066Z,26.23
2018-11-21T01:04:50.454Z,26.67
2018-11-21T01:07:20.704Z,26.93
2018-11-21T01:09:50.705Z,28.10
2018-11-21T01:12:20.207Z,26.40
2018-11-21T01:14:49.268Z,25.70
2018-11-21T01:17:18.920Z,25.13
2018-11-21T01:19:48.592Z,27.00
2018-11-21T01:22:17.934Z,25.00
2018-11-21T01:24:47.127Z,23.30
2018-11-21T01:27:16.941Z,24.47
2018-11-21T01:29:46.222Z,26.03
2018-11-21T01:32:15.243Z,25.03
2018-11-21T01:34:44.119Z,24.10
2018-11-21T01:37:13.521Z,25.73
2018-11-21T01:39:42.048Z,23.23
2018-11-21T01:42:11.789Z,25.10
2018-11-21T01:44:40.540Z,25.07
2018-11-21T01:47:10.692Z,25.57
2018-11-21T01:49:41.393Z,25.03
2018-11-21T01:52:11.175Z,23.63
2018-11-21T01:54:40.686Z,23.80
2018-11-21T01:57:10.410Z,24.30
2018-11-21T01:59:39.305Z,22.23
2018-11-21T02:02:14.789Z,24.70
2018-11-21T02:04:45.335Z,24.33
2018-11-21T02:07:14.738Z,23.63
2018-11-21T02:09:44.036Z,24.37
2018-11-21T02:12:14.133Z,24.57
2018-11-21T02:14:43.904Z,25.87
2018-11-21T02:17:12.794Z,24.93
2018-11-21T02:19:42.143Z,23.23
2018-11-21T02:22:11.778Z,23.10
2018-11-21T02:24:40.880Z,24.00
2018-11-21T02:27:12.504Z,23.63
2018-11-21T02:29:42.244Z,24.27
2018-11-21T02:32:11.845Z,23.30
2018-11-21T02:34:41.660Z,24.97
2018-11-21T02:37:10.274Z,23.17
2018-11-21T02:39:39.355Z,25.33
2018-11-21T02:42:08.756Z,24.20
2018-11-21T02:44:38.913Z,23.63
2018-11-21T02:47:08.336Z,24.10
2018-11-21T02:49:38.210Z,25.43
2018-11-21T02:52:07.689Z,24.53
2018-11-21T02:54:37.231Z,24.83
2018-11-21T02:57:20.936Z,24.30
2018-11-21T02:59:51.585Z,23.70
2018-11-21T03:02:21.408Z,22.73
2018-11-21T03:04:50.782Z,23.33
2018-11-21T03:07:20.387Z,21.53
2018-11-21T03:09:49.710Z,24.70
2018-11-21T03:12:20.053Z,24.10
2018-11-21T03:14:50.313Z,23.80
2018-11-21T03:17:19.720Z,23.70
2018-11-21T03:19:49.789Z,22.03
2018-11-21T03:22:19.545Z,23.30
2018-11-21T03:24:49.393Z,23.10
2018-11-21T03:27:19.129Z,23.43
2018-11-21T03:29:48.531Z,22.90
2018-11-21T03:32:18.375Z,23.03
2018-11-21T03:34:47.266Z,21.93
2018-11-21T03:37:16.139Z,22.47
2018-11-21T03:39:45.099Z,23.07
2018-11-21T03:42:13.938Z,23.30
2018-11-21T03:44:44.218Z,23.23
2018-11-21T03:47:13.564Z,22.50
2018-11-21T03:49:43.198Z,22.93
2018-11-21T03:52:12.841Z,23.10
2018-11-21T03:54:42.628Z,23.17
2018-11-21T03:57:12.430Z,24.37
2018-11-21T03:59:42.272Z,23.03
2018-11-21T04:02:11.787Z,22.37
2018-11-21T04:04:41.657Z,23.87
2018-11-21T04:07:11.849Z,22.77
2018-11-21T04:09:43.911Z,21.87
2018-11-21T04:12:13.895Z,22.80
2018-11-21T04:14:43.110Z,22.57
2018-11-21T04:17:12.038Z,22.63
2018-11-21T04:19:40.663Z,24.13
2018-11-21T04:22:10.958Z,22.60
2018-11-21T04:24:41.282Z,23.33
2018-11-21T04:27:10.739Z,22.20
2018-11-21T04:29:40.547Z,24.00
2018-11-21T04:32:10.964Z,24.30
2018-11-21T04:34:40.168Z,23.17
2018-11-21T04:37:11.092Z,22.83
2018-11-21T04:39:40.456Z,24.33
2018-11-21T04:42:10.055Z,23.97
2018-11-21T04:44:39.450Z,23.90
2018-11-21T04:47:08.672Z,23.93
2018-11-21T04:49:38.584Z,23.13
2018-11-21T04:52:08.851Z,23.43
2018-11-21T04:54:38.036Z,22.10
2018-11-21T04:57:07.380Z,22.97
2018-11-21T04:59:36.798Z,23.93
2018-11-21T05:02:06.290Z,22.87
2018-11-21T05:04:35.640Z,23.17
2018-11-21T05:07:05.483Z,23.60
2018-11-21T05:09:35.222Z,23.73
2018-11-21T05:12:04.613Z,23.50
2018-11-21T05:14:33.816Z,24.43
2018-11-21T05:17:03.313Z,24.03
2018-11-21T05:19:32.312Z,22.97
2018-11-21T05:22:02.403Z,24.03
2018-11-21T05:24:32.127Z,23.10
2018-11-21T05:27:02.299Z,25.40
2018-11-21T05:29:31.878Z,24.87
2018-11-21T05:32:01.440Z,23.17
2018-11-21T05:34:30.050Z,24.93
2018-11-21T05:36:59.350Z,25.27
2018-11-21T05:39:27.826Z,25.07
2018-11-21T05:41:57.211Z,23.40
2018-11-21T05:44:31.255Z,23.63
2018-11-21T05:46:57.382Z,26.10
2018-11-21T05:49:26.314Z,25.17
2018-11-21T05:51:55.803Z,25.03
2018-11-21T05:54:25.246Z,24.10
2018-11-21T05:56:54.239Z,24.13
2018-11-21T05:59:23.566Z,24.30
2018-11-21T06:01:53.606Z,26.43
2018-11-21T06:04:23.472Z,25.50
2018-11-21T06:06:52.803Z,25.80
2018-11-21T06:09:22.651Z,26.40
2018-11-21T06:11:52.339Z,26.60
2018-11-21T06:14:21.693Z,25.13
2018-11-21T06:16:51.939Z,25.90
2018-11-21T06:19:20.809Z,28.73
2018-11-21T06:21:50.278Z,28.92
2018-11-21T06:24:18.907Z,26.70
2018-11-21T06:27:11.304Z,26.50
2018-11-21T06:29:41.137Z,27.47
2018-11-21T06:32:10.676Z,27.30
2018-11-21T06:34:40.240Z,25.10
2018-11-21T06:37:09.962Z,27.17
2018-11-21T06:39:39.207Z,27.17
2018-11-21T06:42:09.589Z,24.87
2018-11-21T06:44:38.575Z,24.97
2018-11-21T06:47:07.952Z,26.23
2018-11-21T06:49:37.665Z,25.53
2018-11-21T06:52:06.671Z,24.07
2018-11-21T06:54:36.583Z,26.37
2018-11-21T06:57:06.004Z,27.80
2018-11-21T06:59:35.701Z,25.60
2018-11-21T07:02:04.891Z,26.67
2018-11-21T07:04:34.276Z,26.80
2018-11-21T07:07:04.286Z,26.60
2018-11-21T07:09:33.614Z,25.73
2018-11-21T07:12:04.552Z,27.10
2018-11-21T07:14:33.893Z,27.13
2018-11-21T07:17:02.845Z,27.10
2018-11-21T07:19:32.183Z,24.87
2018-11-21T07:22:01.566Z,26.77
2018-11-21T07:24:30.829Z,26.30
2018-11-21T07:27:00.305Z,28.13
2018-11-21T07:29:34.525Z,27.23
2018-11-21T07:32:00.061Z,26.17
2018-11-21T07:34:29.605Z,26.13
2018-11-21T07:36:59.284Z,25.53
2018-11-21T07:39:28.248Z,26.90
2018-11-21T07:41:57.568Z,27.07
2018-11-21T07:44:27.987Z,26.87
2018-11-21T07:46:57.346Z,26.93
2018-11-21T07:49:30.689Z,27.37
2018-11-21T07:52:00.144Z,28.03
2018-11-21T07:54:29.887Z,26.63
2018-11-21T07:57:48.003Z,26.77
2018-11-21T08:01:13.986Z,26.80
2018-11-21T08:03:54.784Z,27.40
2018-11-21T08:06:27.684Z,28.33
2018-11-21T08:09:14.689Z,27.30
2018-11-21T08:12:20.974Z,28.80
2018-11-21T08:15:19.441Z,27.67
2018-11-21T08:18:02.675Z,29.30
2018-11-21T08:20:57.971Z,28.03
2018-11-21T08:23:55.404Z,28.60
2018-11-21T08:26:49.527Z,28.37
2018-11-21T08:29:19.510Z,29.13
2018-11-21T08:31:48.936Z,29.43
2018-11-21T08:34:18.267Z,27.60
2018-11-21T08:36:47.774Z,28.27
2018-11-21T08:39:17.880Z,27.97
2018-11-21T08:41:48.295Z,28.40
2018-11-21T08:44:17.481Z,30.53
2018-11-21T08:46:47.455Z,28.90
2018-11-21T08:49:17.969Z,29.63
2018-11-21T08:51:47.830Z,28.27
2018-11-21T08:54:16.364Z,29.67
2018-11-21T08:56:44.876Z,30.57
2018-11-21T08:59:14.067Z,29.67
2018-11-21T09:01:44.006Z,29.97
2018-11-21T09:04:14.263Z,28.77
2018-11-21T09:06:43.910Z,30.77
2018-11-21T09:09:13.891Z,30.17
2018-11-21T09:11:43.323Z,29.60
2018-11-21T09:14:13.219Z,30.30
2018-11-21T09:16:42.645Z,30.30
2018-11-21T09:19:11.872Z,30.63
2018-11-21T09:21:41.237Z,29.70
2018-11-21T09:24:10.023Z,30.20
2018-11-21T09:26:42.607Z,28.83
2018-11-21T09:29:13.413Z,29.83
2018-11-21T09:31:43.678Z,31.73
2018-11-21T09:34:13.411Z,31.30
2018-11-21T09:36:43.334Z,31.37
2018-11-21T09:39:13.436Z,30.77
2018-11-21T09:41:43.410Z,31.23
2018-11-21T09:44:12.756Z,31.40
2018-11-21T09:46:41.986Z,30.40
2018-11-21T09:49:13.518Z,30.53
2018-11-21T09:51:42.527Z,30.40
2018-11-21T09:54:11.415Z,29.37
2018-11-21T09:56:40.471Z,30.07
2018-11-21T09:59:12.845Z,30.17
2018-11-21T10:02:18.519Z,29.90
2018-11-21T10:04:48.276Z,28.53
2018-11-21T10:07:18.242Z,30.63
2018-11-21T10:09:49.772Z,31.13
2018-11-21T10:12:19.181Z,31.67
2018-11-21T10:14:49.930Z,31.53
2018-11-21T10:17:21.098Z,31.77
2018-11-21T10:19:51.241Z,31.70
2018-11-21T10:22:20.086Z,32.30
2018-11-21T10:24:49.411Z,32.03
2018-11-21T10:27:19.175Z,31.33
2018-11-21T10:29:48.925Z,32.00
2018-11-21T10:32:18.595Z,30.93
2018-11-21T10:34:47.568Z,30.90
2018-11-21T10:37:17.516Z,31.77
2018-11-21T10:39:46.696Z,30.03
2018-11-21T10:42:15.793Z,30.60
2018-11-21T10:44:48.197Z,31.13
2018-11-21T10:47:17.669Z,29.10
2018-11-21T10:49:46.597Z,31.20
2018-11-21T10:52:15.228Z,32.80
2018-11-21T10:54:44.433Z,30.80
2018-11-21T10:57:13.417Z,29.67
2018-11-21T10:59:43.868Z,31.67
2018-11-21T11:02:30.193Z,30.20
2018-11-21T11:05:21.872Z,31.30
2018-11-21T11:08:12.167Z,32.77
2018-11-21T11:11:11.274Z,32.17
2018-11-21T11:13:59.288Z,30.80
2018-11-21T11:16:50.563Z,32.40
2018-11-21T11:19:39.635Z,30.47
2018-11-21T11:22:26.270Z,30.87
2018-11-21T11:25:13.591Z,30.20
2018-11-21T11:28:03.159Z,28.53
2018-11-21T11:31:06.111Z,31.73
2018-11-21T11:33:54.563Z,31.93
2018-11-21T11:36:57.723Z,30.63
2018-11-21T11:39:44.600Z,32.17
2018-11-21T11:42:34.574Z,32.00
2018-11-21T11:45:24.526Z,30.60
2018-11-21T11:48:21.308Z,30.40
2018-11-21T11:51:12.464Z,30.20
2018-11-21T11:54:11.263Z,30.27
2018-11-21T11:57:06.429Z,31.27
2018-11-21T11:59:51.896Z,30.00
2018-11-21T12:02:52.253Z,30.23
2018-11-21T12:05:49.145Z,32.17
2018-11-21T12:08:46.232Z,29.20
2018-11-21T12:11:33.792Z,30.20
2018-11-21T12:14:23.863Z,31.67
2018-11-21T12:17:10.417Z,32.27
2018-11-21T12:20:10.378Z,31.07
2018-11-21T12:23:09.785Z,32.67
2018-11-21T12:25:56.477Z,31.50
2018-11-21T12:28:38.639Z,32.37
2018-11-21T12:31:45.734Z,31.93
2018-11-21T12:34:34.019Z,31.67
2018-11-21T12:37:28.498Z,31.67
2018-11-21T12:40:14.083Z,29.37
2018-11-21T12:43:00.657Z,32.67
2018-11-21T12:45:59.948Z,34.23
2018-11-21T12:48:51.517Z,32.30
2018-11-21T12:51:38.618Z,31.37
2018-11-21T12:54:28.865Z,32.57
2018-11-21T12:57:32.499Z,32.70
2018-11-21T13:00:23.340Z,32.77
2018-11-21T13:03:13.088Z,32.77
2018-11-21T13:06:05.027Z,32.60
2018-11-21T13:09:05.338Z,30.70
2018-11-21T13:11:53.291Z,32.57
2018-11-21T13:14:56.764Z,32.13
2018-11-21T13:17:44.036Z,31.60
2018-11-21T13:20:45.951Z,32.30
2018-11-21T13:23:40.328Z,34.10
2018-11-21T13:26:34.740Z,35.13
2018-11-21T13:29:28.413Z,35.27
2018-11-21T13:32:15.803Z,35.70
2018-11-21T13:34:57.949Z,33.37
2018-11-21T13:37:45.103Z,35.43
2018-11-21T13:40:45.825Z,34.07
2018-11-21T13:43:34.378Z,35.47
2018-11-21T13:46:28.851Z,33.37
2018-11-21T13:49:15.679Z,32.17
2018-11-21T13:52:22.473Z,32.47
2018-11-21T13:54:58.370Z,29.60
2018-11-21T13:57:28.900Z,33.70
2018-11-21T13:59:58.251Z,32.33
2018-11-21T14:02:27.954Z,32.03
2018-11-21T14:04:57.742Z,33.00
2018-11-21T14:07:29.449Z,33.53
2018-11-21T14:09:59.135Z,33.63
2018-11-21T14:12:28.199Z,32.97
2018-11-21T14:14:56.940Z,31.17
2018-11-21T14:17:29.848Z,32.47
2018-11-21T14:19:59.248Z,31.50
2018-11-21T14:22:29.458Z,29.87
2018-11-21T14:24:58.493Z,30.87
2018-11-21T14:27:27.951Z,30.57
2018-11-21T14:29:57.265Z,29.90
2018-11-21T14:32:27.143Z,32.20
2018-11-21T14:34:56.951Z,30.57
2018-11-21T14:37:27.069Z,31.67
2018-11-21T14:40:01.425Z,30.03
2018-11-21T14:42:31.959Z,30.03
2018-11-21T14:45:04.658Z,30.27
2018-11-21T14:47:37.557Z,29.77
2018-11-21T14:50:14.734Z,31.63
2018-11-21T14:52:46.494Z,31.03
2018-11-21T14:55:16.436Z,31.17
2018-11-21T14:57:50.117Z,31.13
2018-11-21T15:00:23.004Z,29.63
2018-11-21T15:02:52.994Z,29.87
2018-11-21T15:05:25.893Z,28.33
2018-11-21T15:07:58.733Z,28.70
2018-11-21T15:10:33.618Z,28.40
2018-11-21T15:13:07.538Z,28.37
2018-11-21T15:15:37.645Z,28.20
2018-11-21T15:18:06.993Z,28.90
2018-11-21T15:20:40.324Z,29.70
2018-11-21T15:23:08.919Z,28.97
2018-11-21T15:25:38.736Z,28.13
2018-11-21T15:28:08.554Z,28.83
2018-11-21T15:30:42.535Z,27.87
2018-11-21T15:33:12.628Z,28.80
2018-11-21T15:35:42.278Z,28.10
2018-11-21T15:38:11.282Z,27.50
2018-11-21T15:40:40.844Z,26.53
2018-11-21T15:43:10.149Z,27.57
2018-11-21T15:45:39.827Z,28.13
2018-11-21T15:48:08.749Z,28.30
2018-11-21T15:50:38.373Z,26.90
2018-11-21T15:53:07.792Z,28.07
2018-11-21T15:55:37.310Z,28.83
2018-11-21T15:58:08.507Z,29.67
2018-11-21T16:00:38.153Z,29.67
2018-11-21T16:03:10.396Z,27.80
2018-11-21T16:05:39.479Z,27.70
2018-11-21T16:08:09.281Z,26.90
2018-11-21T16:10:41.341Z,28.87
2018-11-21T16:13:10.341Z,28.67
2018-11-21T16:15:42.880Z,28.53
2018-11-21T16:18:13.854Z,28.47
2018-11-21T16:20:42.980Z,28.80
2018-11-21T16:23:12.381Z,29.03
2018-11-21T16:25:42.563Z,28.07
2018-11-21T16:28:11.799Z,28.23
2018-11-21T16:30:41.604Z,28.00
2018-11-21T16:33:11.225Z,29.77
2018-11-21T16:35:42.427Z,28.03
2018-11-21T16:38:12.376Z,27.63
2018-11-21T16:40:44.427Z,28.63
2018-11-21T16:43:13.815Z,27.33
2018-11-21T16:45:45.622Z,27.87
2018-11-21T16:48:15.096Z,26.43
2018-11-21T16:50:44.742Z,29.57
2018-11-21T16:53:14.557Z,30.83
2018-11-21T16:55:43.846Z,27.80
2018-11-21T16:58:13.836Z,28.40
2018-11-21T17:00:42.760Z,28.20
2018-11-21T17:03:12.212Z,28.97
2018-11-21T17:05:42.121Z,28.27
2018-11-21T17:08:12.395Z,28.67
2018-11-21T17:10:41.044Z,29.60
2018-11-21T17:13:10.795Z,28.43
2018-11-21T17:15:40.264Z,28.77
2018-11-21T17:18:09.775Z,29.20
2018-11-21T17:20:41.870Z,27.93
2018-11-21T17:23:12.020Z,28.27
2018-11-21T17:25:41.391Z,28.73
2018-11-21T17:28:10.862Z,28.27
2018-11-21T17:30:42.957Z,27.53
2018-11-21T17:33:12.905Z,27.30
2018-11-21T17:35:42.332Z,27.93
2018-11-21T17:38:12.161Z,29.23
2018-11-21T17:40:42.650Z,27.63
2018-11-21T17:43:11.742Z,27.53
2018-11-21T17:45:41.599Z,27.13
2018-11-21T17:48:10.940Z,27.63
2018-11-21T17:50:40.533Z,26.67
2018-11-21T17:53:09.859Z,26.37
2018-11-21T17:55:39.844Z,27.57
2018-11-21T17:58:09.611Z,26.33
2018-11-21T18:00:39.519Z,28.07
2018-11-21T18:03:08.451Z,27.67
2018-11-21T18:05:39.749Z,27.20
2018-11-21T18:08:09.588Z,27.43
2018-11-21T18:10:40.344Z,28.93
2018-11-21T18:13:10.096Z,27.03
2018-11-21T18:15:40.547Z,28.07
2018-11-21T18:18:10.632Z,27.33
